Time;durP1;ratioP1;P1;durP2;ratioP2;P2;SDS_P1;SDS_P2;PMS_P1;PMS_P2;Temp;Humidity;BMP_temperature;BMP_pressure;BME280_temperature;BME280_humidity;BME280_pressure;Samples;Min_cycle;Max_cycle;Signal;HPM_P1;HPM_P2
2023/03/18 00:02:17;;;;;;;10.65;2.95;;;9.10;99.90;;;;;;4955900;28;20026;-74
2023/03/18 00:04:43;;;;;;;16.35;2.80;;;9.10;99.90;;;;;;4985048;28;20121;-74
2023/03/18 00:07:09;;;;;;;13.15;3.25;;;9.00;99.90;;;;;;4992094;28;20117;-74
2023/03/18 00:09:36;;;;;;;12.13;2.67;;;9.00;99.90;;;;;;4967112;28;20374;-75
2023/03/18 00:12:03;;;;;;;10.40;2.75;;;9.00;99.90;;;;;;4976651;28;20030;-74
2023/03/18 00:14:28;;;;;;;10.52;3.15;;;9.00;99.90;;;;;;4982047;28;20026;-75
2023/03/18 00:16:54;;;;;;;10.90;3.50;;;9.10;99.90;;;;;;4981311;28;20026;-74
2023/03/18 00:19:22;;;;;;;19.45;4.40;;;9.10;99.90;;;;;;4979429;28;20073;-74
2023/03/18 00:21:48;;;;;;;19.55;3.50;;;9.10;99.90;;;;;;4988788;28;20022;-73
2023/03/18 00:24:14;;;;;;;11.07;3.05;;;9.20;99.90;;;;;;4981884;28;20089;-74
2023/03/18 00:26:40;;;;;;;13.00;3.45;;;9.30;99.90;;;;;;4971821;28;20054;-73
2023/03/18 00:29:06;;;;;;;17.02;3.78;;;9.30;99.90;;;;;;4982357;28;20034;-74
2023/03/18 00:31:32;;;;;;;14.70;4.03;;;9.40;99.90;;;;;;4980387;28;20034;-73
2023/03/18 00:33:58;;;;;;;14.23;3.53;;;9.50;99.90;;;;;;4975533;28;20034;-73
2023/03/18 00:36:25;;;;;;;19.60;4.20;;;9.50;99.90;;;;;;4955798;28;20498;-73
2023/03/18 00:38:56;;;;;;;18.95;3.95;;;9.50;99.90;;;;;;4961742;28;20046;-74
2023/03/18 00:41:26;;;;;;;18.02;3.65;;;9.50;99.90;;;;;;4973768;28;20378;-73
2023/03/18 00:43:53;;;;;;;12.80;4.32;;;9.50;99.90;;;;;;5001198;28;20360;-72
2023/03/18 00:46:23;;;;;;;16.75;3.90;;;9.50;99.90;;;;;;4979571;28;20034;-73
2023/03/18 00:48:50;;;;;;;13.35;3.75;;;9.50;99.90;;;;;;4952062;28;20026;-74
2023/03/18 00:51:17;;;;;;;16.70;4.50;;;9.50;99.90;;;;;;4970233;28;20042;-73
2023/03/18 00:53:45;;;;;;;15.43;3.90;;;9.60;99.90;;;;;;4946046;28;20108;-73
2023/03/18 00:56:12;;;;;;;18.48;4.07;;;9.70;99.90;;;;;;4966557;28;20117;-73
2023/03/18 00:58:39;;;;;;;16.55;4.03;;;9.70;99.90;;;;;;4963102;28;20042;-73
2023/03/18 01:01:06;;;;;;;17.13;4.43;;;9.60;99.90;;;;;;4968334;28;20065;-74
2023/03/18 01:03:33;;;;;;;19.98;4.03;;;9.70;99.90;;;;;;4979621;28;20070;-74
2023/03/18 01:06:01;;;;;;;15.98;4.13;;;9.60;99.90;;;;;;4980090;28;20439;-74
2023/03/18 01:08:27;;;;;;;21.48;4.22;;;9.60;99.90;;;;;;4981087;28;20347;-73
2023/03/18 01:10:53;;;;;;;14.75;4.25;;;9.60;99.90;;;;;;4964483;28;20030;-74
2023/03/18 01:13:18;;;;;;;19.52;4.20;;;9.50;99.90;;;;;;4985683;28;20088;-74
2023/03/18 01:15:44;;;;;;;19.63;4.85;;;9.50;99.90;;;;;;4980673;28;20034;-73
2023/03/18 01:18:10;;;;;;;17.35;4.07;;;9.50;99.90;;;;;;4956500;28;20038;-74
2023/03/18 01:20:37;;;;;;;16.92;4.07;;;9.50;99.90;;;;;;4978927;28;20034;-74
2023/03/18 01:23:04;;;;;;;17.70;4.78;;;9.50;99.90;;;;;;4962810;28;20046;-74
2023/03/18 01:25:30;;;;;;;19.67;4.45;;;9.50;99.90;;;;;;4961826;28;20027;-74
2023/03/18 01:27:55;;;;;;;18.58;4.43;;;9.50;99.90;;;;;;4970656;28;20034;-74
2023/03/18 01:30:22;;;;;;;19.20;4.45;;;9.50;99.90;;;;;;4980284;28;20097;-74
2023/03/18 01:32:48;;;;;;;14.43;4.45;;;9.50;99.90;;;;;;5000689;28;20022;-73
2023/03/18 01:35:14;;;;;;;13.27;4.55;;;9.50;99.90;;;;;;4971777;28;20041;-74
2023/03/18 01:37:40;;;;;;;11.02;4.70;;;9.50;99.90;;;;;;4981285;28;20560;-74
2023/03/18 01:40:08;;;;;;;17.50;4.68;;;9.60;99.90;;;;;;4980411;28;20548;-73
2023/03/18 01:42:34;;;;;;;14.70;5.00;;;9.60;99.90;;;;;;4978477;28;20037;-74
2023/03/18 01:45:22;;;;;;;20.67;4.80;;;9.60;99.90;;;;;;4966032;28;20030;-73
2023/03/18 01:47:48;;;;;;;16.55;5.07;;;9.60;99.90;;;;;;4961863;28;20509;-74
2023/03/18 01:50:18;;;;;;;18.75;4.82;;;9.70;99.90;;;;;;4974345;28;20031;-74
2023/03/18 01:52:45;;;;;;;13.88;4.75;;;9.70;99.90;;;;;;4998672;28;20065;-73
2023/03/18 01:55:16;;;;;;;19.60;4.63;;;9.70;99.90;;;;;;5002245;28;20045;-74
2023/03/18 01:57:43;;;;;;;17.27;4.85;;;9.70;99.90;;;;;;4983111;28;20121;-74
2023/03/18 02:00:10;;;;;;;17.30;4.60;;;9.60;99.90;;;;;;4978429;28;20508;-75
2023/03/18 02:02:39;;;;;;;12.52;3.80;;;9.50;99.90;;;;;;4967629;28;20023;-73
2023/03/18 02:05:07;;;;;;;10.25;3.25;;;9.50;99.90;;;;;;5000652;28;20061;-74
2023/03/18 02:07:34;;;;;;;14.77;4.30;;;9.50;99.90;;;;;;5004285;28;20132;-73
2023/03/18 02:10:04;;;;;;;24.33;4.60;;;9.50;99.90;;;;;;4983553;28;20528;-74
2023/03/18 02:12:33;;;;;;;18.77;4.43;;;9.40;99.90;;;;;;4978395;28;20931;-74
2023/03/18 02:15:01;;;;;;;16.73;4.50;;;9.40;99.90;;;;;;4985596;28;20033;-74
2023/03/18 02:17:30;;;;;;;20.23;5.00;;;9.40;99.90;;;;;;4987982;28;20042;-73
2023/03/18 02:20:23;;;;;;;21.95;4.22;;;9.40;99.90;;;;;;4990391;28;20038;-74
2023/03/18 02:22:52;;;;;;;10.95;4.13;;;9.40;99.90;;;;;;4975387;28;20042;-74
2023/03/18 02:25:42;;;;;;;14.18;4.60;;;9.30;99.90;;;;;;4972964;28;20466;-74
2023/03/18 02:28:12;;;;;;;12.32;3.92;;;9.30;99.90;;;;;;4957392;28;20177;-74
2023/03/18 02:30:55;;;;;;;16.45;4.13;;;9.30;99.90;;;;;;4968378;28;20431;-73
2023/03/18 02:33:25;;;;;;;15.75;4.05;;;9.30;99.90;;;;;;4977588;28;20025;-73
2023/03/18 02:36:01;;;;;;;12.13;4.57;;;9.30;99.90;;;;;;4976491;28;20031;-74
2023/03/18 02:38:26;;;;;;;13.85;4.40;;;9.30;99.90;;;;;;4969097;28;20379;-75
2023/03/18 02:40:52;;;;;;;21.77;4.45;;;9.30;99.90;;;;;;4980983;28;20049;-74
2023/03/18 02:43:26;;;;;;;15.05;4.90;;;9.30;99.90;;;;;;4974690;28;20038;-74
2023/03/18 02:46:13;;;;;;;10.30;4.25;;;9.30;99.90;;;;;;4961651;28;20034;-73
2023/03/18 02:48:44;;;;;;;13.70;4.30;;;9.40;99.90;;;;;;4967556;28;20124;-74
2023/03/18 02:51:11;;;;;;;19.40;4.95;;;9.40;99.90;;;;;;4983072;28;20026;-74
2023/03/18 02:53:37;;;;;;;19.38;4.47;;;9.40;99.90;;;;;;4977489;28;20034;-73
2023/03/18 02:56:05;;;;;;;16.23;5.00;;;9.50;99.90;;;;;;4978470;28;20680;-74
2023/03/18 02:58:32;;;;;;;17.83;4.93;;;9.50;99.90;;;;;;4985326;28;20030;-74
2023/03/18 03:00:57;;;;;;;13.43;5.05;;;9.50;99.90;;;;;;4988039;28;20045;-74
2023/03/18 03:03:25;;;;;;;23.02;4.93;;;9.50;99.90;;;;;;4969045;28;20035;-74
2023/03/18 03:05:51;;;;;;;17.10;5.20;;;9.50;99.90;;;;;;4991090;28;20576;-74
2023/03/18 03:08:18;;;;;;;15.00;5.25;;;9.50;99.90;;;;;;4987150;28;20195;-74
2023/03/18 03:10:43;;;;;;;17.85;5.20;;;9.60;99.90;;;;;;4980198;28;20030;-74
2023/03/18 03:13:10;;;;;;;19.55;4.72;;;9.50;99.90;;;;;;4978422;28;20041;-73
2023/03/18 03:15:39;;;;;;;13.98;4.63;;;9.50;99.90;;;;;;4979832;28;20034;-73
2023/03/18 03:18:06;;;;;;;20.77;5.05;;;9.50;99.90;;;;;;4973890;28;20030;-73
2023/03/18 03:20:34;;;;;;;14.70;4.70;;;9.50;99.90;;;;;;4976159;28;20478;-74
2023/03/18 03:23:01;;;;;;;15.82;4.68;;;9.50;99.90;;;;;;4976885;28;20026;-74
2023/03/18 03:25:28;;;;;;;14.73;5.45;;;9.40;99.90;;;;;;4973926;28;20485;-73
2023/03/18 03:27:53;;;;;;;11.48;5.00;;;9.50;99.90;;;;;;4984737;28;20033;-73
2023/03/18 03:30:19;;;;;;;18.50;4.45;;;9.50;99.90;;;;;;4987060;28;20041;-73
2023/03/18 03:32:46;;;;;;;17.88;4.57;;;9.40;99.90;;;;;;4977515;28;20054;-75
2023/03/18 03:35:14;;;;;;;16.95;4.57;;;9.40;99.90;;;;;;4979283;28;20135;-75
2023/03/18 03:37:40;;;;;;;15.15;4.97;;;9.40;99.90;;;;;;4976228;28;20037;-74
2023/03/18 03:40:07;;;;;;;13.82;3.95;;;9.40;99.90;;;;;;4976723;28;20042;-74
2023/03/18 03:42:33;;;;;;;14.25;3.97;;;9.30;99.90;;;;;;4982151;28;20030;-74
2023/03/18 03:44:59;;;;;;;12.32;4.22;;;9.30;99.90;;;;;;4967875;28;20045;-74
2023/03/18 03:47:25;;;;;;;15.93;3.70;;;9.30;99.90;;;;;;4977795;28;20216;-74
2023/03/18 03:49:51;;;;;;;15.57;4.30;;;9.20;99.90;;;;;;4981778;28;20478;-74
2023/03/18 03:52:18;;;;;;;8.00;2.97;;;9.20;99.90;;;;;;4971099;28;20111;-74
2023/03/18 03:54:44;;;;;;;10.73;3.20;;;9.10;99.90;;;;;;4999049;28;20052;-73
2023/03/18 03:57:10;;;;;;;16.77;3.80;;;9.00;99.90;;;;;;4982230;28;20030;-73
2023/03/18 03:59:36;;;;;;;15.98;3.65;;;9.10;99.90;;;;;;4980981;28;20114;-73
2023/03/18 04:02:02;;;;;;;12.52;3.30;;;9.00;99.90;;;;;;4979322;28;20030;-74
2023/03/18 04:04:28;;;;;;;18.77;3.50;;;9.00;99.90;;;;;;4988870;28;20126;-74
2023/03/18 04:06:54;;;;;;;17.48;3.42;;;9.00;99.90;;;;;;4999065;28;20054;-74
2023/03/18 04:09:20;;;;;;;11.52;4.25;;;9.00;99.90;;;;;;4986432;28;20065;-74
2023/03/18 04:11:46;;;;;;;22.70;4.22;;;9.00;99.90;;;;;;4976035;28;20492;-74
2023/03/18 04:14:12;;;;;;;13.10;3.35;;;8.90;99.90;;;;;;4985068;28;20201;-74
2023/03/18 04:16:38;;;;;;;12.52;4.32;;;8.90;99.90;;;;;;4973189;28;20394;-74
2023/03/18 04:19:05;;;;;;;21.50;3.78;;;9.00;99.90;;;;;;4958274;28;21486;-74
2023/03/18 04:21:30;;;;;;;17.80;3.63;;;9.00;99.90;;;;;;4972603;28;20054;-75
2023/03/18 04:23:56;;;;;;;12.57;3.40;;;9.00;99.90;;;;;;4967370;28;20030;-74
2023/03/18 04:26:22;;;;;;;10.25;2.78;;;9.10;99.90;;;;;;4958493;28;20034;-74
2023/03/18 04:28:47;;;;;;;13.52;3.20;;;9.20;99.90;;;;;;4955326;28;20089;-73
2023/03/18 04:31:13;;;;;;;13.15;3.33;;;9.20;99.90;;;;;;4960332;28;20079;-74
2023/03/18 04:33:39;;;;;;;16.30;3.60;;;9.30;99.90;;;;;;4974152;28;20022;-74
2023/03/18 04:36:05;;;;;;;11.50;3.17;;;9.30;99.90;;;;;;4993356;28;20030;-74
2023/03/18 04:38:31;;;;;;;17.13;3.40;;;9.30;99.90;;;;;;4969908;28;20027;-74
2023/03/18 04:40:57;;;;;;;14.25;3.45;;;9.40;99.90;;;;;;4963158;28;20096;-75
2023/03/18 04:43:23;;;;;;;12.80;3.33;;;9.40;99.90;;;;;;4987777;28;20037;-74
2023/03/18 04:45:49;;;;;;;10.45;2.60;;;9.40;99.90;;;;;;4999148;28;20029;-74
2023/03/18 04:48:14;;;;;;;13.75;2.60;;;9.40;99.90;;;;;;4982350;28;20038;-75
2023/03/18 04:50:40;;;;;;;10.32;2.67;;;9.50;99.90;;;;;;4975482;28;20038;-74
2023/03/18 04:53:05;;;;;;;18.67;3.63;;;9.50;99.90;;;;;;4959367;28;20035;-74
2023/03/18 04:55:32;;;;;;;11.55;2.67;;;9.60;99.90;;;;;;4964362;28;20061;-74
2023/03/18 04:57:58;;;;;;;9.85;2.50;;;9.60;99.90;;;;;;4987367;28;20400;-73
2023/03/18 05:00:23;;;;;;;10.77;2.60;;;9.60;99.90;;;;;;4967912;28;20121;-75
2023/03/18 05:02:49;;;;;;;10.05;2.60;;;9.60;99.90;;;;;;4983664;28;20133;-75
2023/03/18 05:05:15;;;;;;;12.05;2.40;;;9.60;99.90;;;;;;4985864;28;20183;-74
2023/03/18 05:07:41;;;;;;;13.95;2.60;;;9.60;99.90;;;;;;4986732;28;20038;-74
2023/03/18 05:10:07;;;;;;;12.30;2.60;;;9.60;99.90;;;;;;4961925;28;20687;-74
2023/03/18 05:12:34;;;;;;;12.45;2.30;;;9.60;99.90;;;;;;4976622;28;20022;-74
2023/03/18 05:15:00;;;;;;;11.60;2.55;;;9.60;99.90;;;;;;4961229;28;20117;-74
2023/03/18 05:17:25;;;;;;;10.57;2.30;;;9.70;99.90;;;;;;4978186;28;20110;-74
2023/03/18 05:19:51;;;;;;;11.05;2.53;;;9.70;99.90;;;;;;4964033;28;20464;-74
2023/03/18 05:22:18;;;;;;;14.52;2.50;;;9.70;99.90;;;;;;4977523;28;20517;-75
2023/03/18 05:24:44;;;;;;;9.98;3.03;;;9.70;99.90;;;;;;4977627;28;20038;-74
2023/03/18 05:27:11;;;;;;;9.50;2.40;;;9.70;99.90;;;;;;4956084;28;20027;-74
2023/03/18 05:29:39;;;;;;;18.80;3.72;;;9.70;99.90;;;;;;4997332;28;20104;-74
2023/03/18 05:32:05;;;;;;;17.60;3.20;;;9.80;99.90;;;;;;4976980;28;20034;-74
2023/03/18 05:34:32;;;;;;;12.73;2.53;;;9.80;99.90;;;;;;4982608;28;20029;-74
2023/03/18 05:36:58;;;;;;;15.95;2.65;;;9.70;99.90;;;;;;4996481;28;20402;-74
2023/03/18 05:39:24;;;;;;;9.95;2.75;;;9.70;99.90;;;;;;4982121;28;20034;-74
2023/03/18 05:41:49;;;;;;;12.73;2.55;;;9.70;99.90;;;;;;4972145;28;20639;-73
2023/03/18 05:44:15;;;;;;;10.23;2.53;;;9.70;99.90;;;;;;4989794;28;20040;-74
2023/03/18 05:46:41;;;;;;;12.00;2.65;;;9.60;99.90;;;;;;4988607;28;20307;-74
2023/03/18 05:49:07;;;;;;;10.90;2.45;;;9.70;99.90;;;;;;4969528;28;20121;-73
2023/03/18 05:51:33;;;;;;;9.25;2.88;;;9.70;99.90;;;;;;4983194;28;20443;-74
2023/03/18 05:53:59;;;;;;;10.35;2.90;;;9.70;99.90;;;;;;5001434;28;20343;-74
2023/03/18 05:56:25;;;;;;;10.48;2.92;;;9.70;99.90;;;;;;4983729;28;20027;-74
2023/03/18 05:58:51;;;;;;;13.40;3.22;;;9.70;99.90;;;;;;4976226;28;20565;-74
2023/03/18 06:01:18;;;;;;;13.27;3.00;;;9.70;99.90;;;;;;4981476;28;20022;-74
2023/03/18 06:03:44;;;;;;;11.82;2.70;;;9.70;99.90;;;;;;4979975;28;20494;-74
2023/03/18 06:06:10;;;;;;;11.02;2.70;;;9.70;99.90;;;;;;4982170;28;20034;-73
2023/03/18 06:08:36;;;;;;;9.55;3.75;;;9.70;99.90;;;;;;4978160;28;20039;-73
2023/03/18 06:11:02;;;;;;;10.23;3.10;;;9.70;99.90;;;;;;4993246;28;20065;-74
2023/03/18 06:13:28;;;;;;;11.82;2.97;;;9.70;99.90;;;;;;4979305;28;20036;-74
2023/03/18 06:15:58;;;;;;;12.52;3.80;;;9.70;99.90;;;;;;4969933;28;20054;-74
2023/03/18 06:18:25;;;;;;;12.20;3.65;;;9.70;99.90;;;;;;4974959;28;20034;-74
2023/03/18 06:20:51;;;;;;;9.32;3.97;;;9.70;99.90;;;;;;4977195;28;20117;-75
2023/03/18 06:23:17;;;;;;;14.63;3.90;;;9.60;99.90;;;;;;4989729;28;20104;-74
2023/03/18 06:25:44;;;;;;;13.27;3.60;;;9.70;99.90;;;;;;4989462;28;20053;-74
2023/03/18 06:28:09;;;;;;;12.20;3.88;;;9.70;99.90;;;;;;4971424;28;20530;-74
2023/03/18 06:30:36;;;;;;;10.05;3.65;;;9.60;99.90;;;;;;4998975;28;20117;-74
2023/03/18 06:33:02;;;;;;;14.05;4.25;;;9.60;99.90;;;;;;4990537;28;20019;-75
2023/03/18 06:35:27;;;;;;;11.02;4.00;;;9.60;99.90;;;;;;4967553;28;20493;-74
2023/03/18 06:37:53;;;;;;;11.20;4.22;;;9.60;99.90;;;;;;4978490;28;20030;-74
2023/03/18 06:40:19;;;;;;;10.70;4.40;;;9.60;99.90;;;;;;4978463;28;20179;-73
2023/03/18 06:42:45;;;;;;;9.63;3.50;;;9.60;99.90;;;;;;4977280;28;20402;-74
2023/03/18 06:45:12;;;;;;;14.50;3.65;;;9.50;99.90;;;;;;4978671;28;20724;-74
2023/03/18 06:47:38;;;;;;;9.15;3.58;;;9.60;99.90;;;;;;4980571;28;20034;-74
2023/03/18 06:50:04;;;;;;;9.57;3.22;;;9.50;99.90;;;;;;4980997;28;20058;-74
2023/03/18 06:52:30;;;;;;;11.25;2.80;;;9.50;99.90;;;;;;4980037;28;20072;-74
2023/03/18 06:54:56;;;;;;;11.60;3.00;;;9.50;99.90;;;;;;4987376;28;20042;-74
2023/03/18 06:57:22;;;;;;;8.00;2.33;;;9.50;99.90;;;;;;4982665;28;20654;-75
2023/03/18 06:59:47;;;;;;;6.68;2.22;;;9.50;99.90;;;;;;4988381;28;20136;-75
2023/03/18 07:02:14;;;;;;;8.80;2.33;;;9.40;99.90;;;;;;4962455;28;20114;-74
2023/03/18 07:04:40;;;;;;;8.90;2.30;;;9.40;99.90;;;;;;4960660;28;20529;-74
2023/03/18 07:07:06;;;;;;;7.07;2.20;;;9.40;99.90;;;;;;4981496;28;20030;-74
2023/03/18 07:09:32;;;;;;;6.72;1.70;;;9.40;99.90;;;;;;4980548;28;20038;-75
2023/03/18 07:11:59;;;;;;;15.60;2.22;;;9.50;99.90;;;;;;4979759;28;20026;-74
2023/03/18 07:14:27;;;;;;;5.15;2.00;;;9.50;99.90;;;;;;4975063;28;20042;-74
2023/03/18 07:16:52;;;;;;;8.82;2.20;;;9.50;99.90;;;;;;4979277;28;20893;-75
2023/03/18 07:19:18;;;;;;;18.33;2.97;;;9.50;99.90;;;;;;4979570;28;20042;-74
2023/03/18 07:21:45;;;;;;;11.07;3.05;;;9.60;99.90;;;;;;4977865;28;20089;-75
2023/03/18 07:24:11;;;;;;;11.45;2.55;;;9.60;99.90;;;;;;4972044;28;20039;-74
2023/03/18 07:26:37;;;;;;;8.57;2.28;;;9.80;99.90;;;;;;4973285;28;20181;-75
2023/03/18 07:29:03;;;;;;;10.52;2.08;;;9.90;99.90;;;;;;4977003;28;20561;-74
2023/03/18 07:31:29;;;;;;;6.63;2.05;;;9.80;99.90;;;;;;4956688;28;20034;-74
2023/03/18 07:33:56;;;;;;;10.75;2.50;;;9.80;99.90;;;;;;4970829;28;20073;-75
2023/03/18 07:36:22;;;;;;;11.73;2.80;;;9.80;99.90;;;;;;4972172;28;20030;-75
2023/03/18 07:38:47;;;;;;;11.88;3.28;;;9.80;99.90;;;;;;4969451;28;20035;-74
2023/03/18 07:41:13;;;;;;;12.00;3.25;;;9.90;99.90;;;;;;4975996;28;20030;-75
2023/03/18 07:43:39;;;;;;;10.82;3.83;;;9.90;99.90;;;;;;4980497;28;20442;-75
2023/03/18 07:46:05;;;;;;;9.45;4.05;;;10.00;99.90;;;;;;4966293;28;20038;-79
2023/03/18 07:48:32;;;;;;;10.18;4.88;;;10.00;99.90;;;;;;4963358;28;20042;-79
2023/03/18 07:50:59;;;;;;;11.60;5.10;;;9.90;99.90;;;;;;4978633;28;20109;-79
2023/03/18 07:53:26;;;;;;;12.13;5.18;;;10.00;99.90;;;;;;4981361;28;20049;-79
2023/03/18 07:55:52;;;;;;;10.20;4.88;;;10.00;99.90;;;;;;4982877;28;20031;-80
2023/03/18 07:58:18;;;;;;;11.35;6.20;;;10.10;99.90;;;;;;4967414;28;20785;-80
2023/03/18 08:00:43;;;;;;;8.65;5.47;;;10.10;99.90;;;;;;4974419;28;20026;-80
2023/03/18 08:03:11;;;;;;;10.57;5.60;;;10.10;99.90;;;;;;4971533;28;20082;-79
2023/03/18 08:05:37;;;;;;;6.93;5.45;;;10.10;99.90;;;;;;4967567;28;20646;-79
2023/03/18 08:08:04;;;;;;;8.43;5.10;;;10.20;99.90;;;;;;4964595;28;20053;-79
2023/03/18 08:10:30;;;;;;;9.07;5.15;;;10.20;99.90;;;;;;4974151;28;20039;-80
2023/03/18 08:12:56;;;;;;;11.35;4.80;;;10.20;99.90;;;;;;4996480;28;20022;-79
2023/03/18 08:15:22;;;;;;;6.80;4.72;;;10.20;99.90;;;;;;4966587;28;20038;-79
2023/03/18 08:17:49;;;;;;;8.02;4.68;;;10.20;99.90;;;;;;4963729;28;20466;-79
2023/03/18 08:20:15;;;;;;;6.88;4.43;;;10.20;99.90;;;;;;4968213;28;20788;-80
2023/03/18 08:22:40;;;;;;;7.28;4.93;;;10.20;99.90;;;;;;4979125;28;20097;-80
2023/03/18 08:25:06;;;;;;;8.63;4.68;;;10.10;99.90;;;;;;4986899;28;20379;-80
2023/03/18 08:27:32;;;;;;;14.80;5.60;;;10.10;99.90;;;;;;4980548;28;20042;-79
2023/03/18 08:29:58;;;;;;;8.75;4.95;;;10.20;99.90;;;;;;4984305;28;20639;-79
2023/03/18 08:32:24;;;;;;;8.45;4.88;;;10.20;99.90;;;;;;4975048;28;20109;-80
2023/03/18 08:34:50;;;;;;;6.75;4.38;;;10.10;99.90;;;;;;4961016;28;20080;-79
2023/03/18 08:37:15;;;;;;;7.80;4.63;;;10.00;99.90;;;;;;4961154;28;20026;-79
2023/03/18 08:39:43;;;;;;;6.75;4.38;;;10.00;99.90;;;;;;4970166;28;20291;-80
2023/03/18 08:42:10;;;;;;;10.30;4.60;;;10.00;99.90;;;;;;4964540;28;20030;-80
2023/03/18 08:44:36;;;;;;;6.10;4.07;;;10.00;99.90;;;;;;4975741;28;20030;-80
2023/03/18 08:47:02;;;;;;;7.60;3.85;;;10.10;99.90;;;;;;4967767;28;20071;-79
2023/03/18 08:49:28;;;;;;;7.00;3.45;;;10.10;99.90;;;;;;4968911;28;20492;-80
2023/03/18 08:51:53;;;;;;;6.03;2.53;;;10.20;99.90;;;;;;4973799;28;20058;-80
2023/03/18 08:54:20;;;;;;;4.55;2.30;;;10.30;99.90;;;;;;4972888;28;20117;-79
2023/03/18 08:56:46;;;;;;;4.90;2.28;;;10.30;99.90;;;;;;4957403;28;20034;-80
2023/03/18 08:59:12;;;;;;;4.47;1.88;;;10.50;99.90;;;;;;4968344;28;20038;-80
2023/03/18 09:01:38;;;;;;;2.25;1.33;;;10.40;99.90;;;;;;4970723;28;20474;-79
2023/03/18 09:04:04;;;;;;;2.47;1.52;;;10.40;99.90;;;;;;4971797;28;20041;-79
2023/03/18 09:06:30;;;;;;;3.67;1.73;;;10.40;99.90;;;;;;4961822;28;20034;-79
2023/03/18 09:08:56;;;;;;;3.58;2.03;;;10.40;99.90;;;;;;4967547;28;20026;-79
2023/03/18 09:11:22;;;;;;;3.05;1.23;;;10.40;99.90;;;;;;4970604;28;20037;-79
2023/03/18 09:13:48;;;;;;;5.70;1.60;;;10.40;99.90;;;;;;4967955;28;20030;-78
2023/03/18 09:16:14;;;;;;;4.72;1.60;;;10.30;99.90;;;;;;4972139;28;20034;-79
2023/03/18 09:18:39;;;;;;;5.32;1.98;;;10.40;99.90;;;;;;4972447;28;20036;-79
2023/03/18 09:21:05;;;;;;;4.28;2.17;;;10.40;99.90;;;;;;4968495;28;20169;-79
2023/03/18 09:23:33;;;;;;;4.38;2.17;;;10.50;99.90;;;;;;4967886;28;20085;-79
2023/03/18 09:25:59;;;;;;;5.40;2.75;;;10.60;99.90;;;;;;4962438;28;20029;-79
2023/03/18 09:28:25;;;;;;;5.10;2.60;;;10.70;99.90;;;;;;4959455;28;20303;-79
2023/03/18 09:30:51;;;;;;;5.35;3.20;;;10.60;99.90;;;;;;4966803;28;20137;-80
2023/03/18 09:33:17;;;;;;;6.22;3.20;;;10.70;99.90;;;;;;4964026;28;20031;-80
2023/03/18 09:35:43;;;;;;;4.60;3.03;;;10.70;99.90;;;;;;4961107;28;20045;-79
2023/03/18 09:38:18;;;;;;;5.65;3.15;;;10.80;99.90;;;;;;4951956;28;20050;-79
2023/03/18 09:41:33;;;;;;;11.20;3.40;;;11.10;99.90;;;;;;4970735;28;20575;-80
2023/03/18 09:44:28;;;;;;;5.43;2.80;;;11.30;99.90;;;;;;4979354;28;20030;-79
2023/03/18 09:47:22;;;;;;;6.53;2.97;;;11.40;99.90;;;;;;5002158;28;20109;-79
2023/03/18 09:50:12;;;;;;;8.63;3.50;;;11.40;99.90;;;;;;4974868;28;20385;-80
2023/03/18 09:52:49;;;;;;;8.13;3.72;;;11.40;99.90;;;;;;4969972;28;20050;-80
2023/03/18 09:55:45;;;;;;;8.27;3.40;;;11.30;99.90;;;;;;4974762;28;20027;-80
2023/03/18 09:58:27;;;;;;;9.95;3.55;;;11.30;99.90;;;;;;4953069;28;20038;-79
2023/03/18 10:00:55;;;;;;;;;;;11.20;99.90;;;;;;4974836;28;20040;-80
2023/03/18 10:03:32;;;;;;;8.63;2.88;;;11.40;99.90;;;;;;4970957;28;19965;-80
2023/03/18 10:05:59;;;;;;;8.18;2.78;;;11.40;99.90;;;;;;4958363;28;20510;-80
2023/03/18 10:09:00;;;;;;;9.75;2.53;;;11.60;99.90;;;;;;4974538;28;20382;-80
2023/03/18 10:11:41;;;;;;;6.63;2.15;;;11.70;99.90;;;;;;4983187;28;20030;-81
2023/03/18 10:14:25;;;;;;;3.63;1.58;;;11.70;99.90;;;;;;4966707;28;20215;-80
2023/03/18 10:17:09;;;;;;;6.72;2.05;;;11.80;99.90;;;;;;4996057;28;20037;-80
2023/03/18 10:19:36;;;;;;;2.65;0.80;;;11.90;99.90;;;;;;4980434;28;20041;-79
2023/03/18 10:22:42;;;;;;;4.93;0.95;;;11.90;99.90;;;;;;4985510;28;20128;-79
2023/03/18 10:25:35;;;;;;;3.78;0.88;;;11.70;99.90;;;;;;4920769;28;20565;-79
2023/03/18 10:28:25;;;;;;;5.07;1.00;;;11.60;99.90;;;;;;4283786;28;10000568;-79
2023/03/18 10:31:19;;;;;;;7.93;1.25;;;11.70;99.90;;;;;;4972732;28;20077;-80
2023/03/18 10:34:03;;;;;;;9.73;1.30;;;11.60;99.90;;;;;;4966267;28;20042;-79
2023/03/18 10:36:54;;;;;;;7.85;1.33;;;11.50;99.90;;;;;;4981939;28;20138;-78
2023/03/18 10:39:25;;;;;;;9.60;1.67;;;11.50;99.90;;;;;;4952828;28;20063;-78
2023/03/18 10:41:53;;;;;;;7.80;1.52;;;11.50;99.90;;;;;;4964960;28;20057;-78
2023/03/18 10:44:25;;;;;;;6.82;1.45;;;11.60;99.90;;;;;;4958793;28;20057;-79
2023/03/18 10:47:12;;;;;;;7.55;1.20;;;11.70;99.90;;;;;;4966815;28;20387;-78
2023/03/18 10:49:54;;;;;;;8.90;1.38;;;11.80;99.90;;;;;;4975001;28;20034;-78
2023/03/18 10:52:29;;;;;;;7.28;1.42;;;11.80;99.90;;;;;;4975657;28;20117;-78
2023/03/18 10:54:55;;;;;;;5.22;1.15;;;11.80;99.90;;;;;;4966685;28;20523;-78
2023/03/18 10:57:21;;;;;;;5.00;1.05;;;11.80;99.90;;;;;;4982012;28;20030;-78
2023/03/18 10:59:50;;;;;;;6.07;1.27;;;12.00;99.90;;;;;;4975550;28;20037;-77
2023/03/18 11:02:37;;;;;;;7.15;1.33;;;11.90;99.90;;;;;;4972244;28;20038;-81
2023/03/18 11:05:20;;;;;;;5.45;1.20;;;11.90;99.90;;;;;;4974247;28;20137;-78
2023/03/18 11:08:00;;;;;;;7.18;1.15;;;12.00;99.90;;;;;;4971135;28;20030;-78
2023/03/18 11:10:30;;;;;;;6.63;1.30;;;12.00;99.90;;;;;;4981065;28;20091;-78
2023/03/18 11:13:05;;;;;;;4.25;1.10;;;11.80;99.90;;;;;;4990201;28;20030;-78
2023/03/18 11:15:48;;;;;;;6.97;1.20;;;11.60;99.90;;;;;;4993671;28;20034;-78
2023/03/18 11:18:16;;;;;;;3.83;1.13;;;11.70;99.90;;;;;;4979674;28;20037;-79
2023/03/18 11:20:44;;;;;;;6.22;1.30;;;11.70;99.90;;;;;;4976326;28;20068;-79
2023/03/18 11:23:34;;;;;;;5.93;1.30;;;11.80;99.90;;;;;;4969179;28;20101;-78
2023/03/18 11:26:01;;;;;;;9.43;2.08;;;12.10;99.90;;;;;;4969373;28;20118;-79
2023/03/18 11:28:28;;;;;;;4.10;1.02;;;12.20;99.90;;;;;;4966167;28;20057;-78
2023/03/18 11:30:56;;;;;;;3.80;1.00;;;12.40;99.90;;;;;;4966445;28;20505;-78
2023/03/18 11:33:31;;;;;;;4.22;0.90;;;12.90;99.90;;;;;;4966222;28;20061;-78
2023/03/18 11:35:59;;;;;;;6.20;1.05;;;13.30;99.90;;;;;;4971267;28;20101;-79
2023/03/18 11:38:28;;;;;;;4.15;0.90;;;14.00;99.90;;;;;;4979576;28;20162;-78
2023/03/18 11:41:18;;;;;;;2.63;0.95;;;14.40;99.90;;;;;;4992911;28;20043;-78
2023/03/18 11:44:05;;;;;;;4.80;1.20;;;14.60;99.90;;;;;;4967063;28;20813;-79
2023/03/18 11:46:58;;;;;;;3.70;0.90;;;14.70;99.90;;;;;;4988839;28;20038;-78
2023/03/18 11:49:27;;;;;;;2.47;0.90;;;14.80;99.90;;;;;;4980981;28;20077;-79
2023/03/18 11:52:13;;;;;;;4.05;1.00;;;14.80;99.90;;;;;;4981503;28;20145;-78
2023/03/18 11:54:53;;;;;;;4.43;1.05;;;14.70;99.90;;;;;;4971759;28;20042;-78
2023/03/18 11:57:42;;;;;;;4.35;1.10;;;15.20;99.90;;;;;;4996502;28;20406;-78
2023/03/18 12:00:27;;;;;;;4.18;1.10;;;15.20;99.90;;;;;;4982409;28;20209;-78
2023/03/18 12:03:21;;;;;;;3.95;1.30;;;15.60;99.90;;;;;;4974549;28;20085;-78
2023/03/18 12:05:59;;;;;;;4.03;1.30;;;15.90;99.90;;;;;;4957311;28;20517;-78
2023/03/18 12:08:53;;;;;;;4.82;1.05;;;15.90;99.90;;;;;;4985384;28;20034;-78
2023/03/18 12:11:28;;;;;;;2.92;1.15;;;15.70;99.90;;;;;;4963264;28;20031;-78
2023/03/18 12:14:16;;;;;;;6.57;1.10;;;15.60;99.90;;;;;;4976294;28;20389;-78
2023/03/18 12:17:20;;;;;;;9.20;1.55;;;15.50;99.90;;;;;;5000437;28;20029;-78
2023/03/18 12:20:18;;;;;;;5.60;1.35;;;15.70;99.90;;;;;;4970366;28;20091;-79
2023/03/18 12:23:03;;;;;;;5.38;1.58;;;15.70;99.90;;;;;;5000285;28;20086;-78
2023/03/18 12:25:47;;;;;;;4.65;1.23;;;15.60;99.90;;;;;;4995940;28;20276;-78
2023/03/18 12:28:33;;;;;;;5.93;1.48;;;15.20;99.90;;;;;;5000604;28;20520;-78
2023/03/18 12:31:04;;;;;;;7.32;1.77;;;15.60;99.90;;;;;;4961674;28;20019;-78
2023/03/18 12:33:49;;;;;;;;;;;16.90;99.90;;;;;;4962205;28;20667;-78
2023/03/18 12:37:03;;;;;;;6.82;1.25;;;18.40;99.90;;;;;;4966061;28;20274;-78
2023/03/18 12:39:54;;;;;;;7.53;1.50;;;18.10;93.70;;;;;;4958509;28;20145;-78
2023/03/18 12:42:29;;;;;;;5.65;1.10;;;18.00;79.60;;;;;;4968321;28;20058;-78
2023/03/18 12:45:07;;;;;;;7.90;1.30;;;17.90;95.90;;;;;;4966491;28;21113;-78
2023/03/18 12:48:08;;;;;;;5.07;1.17;;;18.10;98.40;;;;;;4968010;28;20027;-78
2023/03/18 12:50:41;;;;;;;7.75;1.40;;;18.10;92.20;;;;;;4961804;28;20226;-77
2023/03/18 12:53:19;;;;;;;5.60;1.30;;;17.50;92.50;;;;;;4962176;28;20031;-77
2023/03/18 12:55:48;;;;;;;7.40;1.38;;;17.40;86.20;;;;;;4962821;28;20398;-78
2023/03/18 12:58:27;;;;;;;6.15;1.10;;;17.10;95.40;;;;;;4971622;28;20034;-78
2023/03/18 13:01:07;;;;;;;5.47;1.10;;;16.40;96.30;;;;;;4970849;28;20051;-78
2023/03/18 13:03:34;;;;;;;4.25;0.90;;;16.20;96.30;;;;;;4976686;28;20069;-78
2023/03/18 13:06:17;;;;;;;4.68;1.05;;;15.50;99.00;;;;;;4974201;28;20194;-78